sensor_id;sensor_type;location;lat;lon;timestamp;P1;durP1;ratioP1;P2;durP2;ratioP2
12896;SDS011;6516;35.028;32.372;2022-08-21T00:00:11;15.93;;;9.47;;
12896;SDS011;6516;35.028;32.372;2022-08-21T00:02:46;13.30;;;8.80;;
12896;SDS011;6516;35.028;32.372;2022-08-21T00:05:18;12.52;;;9.13;;
12896;SDS011;6516;35.028;32.372;2022-08-21T00:07:48;12.60;;;8.95;;
12896;SDS011;6516;35.028;32.372;2022-08-21T00:10:18;14.23;;;8.70;;
12896;SDS011;6516;35.028;32.372;2022-08-21T00:12:46;13.07;;;9.17;;
12896;SDS011;6516;35.028;32.372;2022-08-21T00:15:18;13.38;;;8.75;;
12896;SDS011;6516;35.028;32.372;2022-08-21T00:17:51;13.88;;;9.10;;
12896;SDS011;6516;35.028;32.372;2022-08-21T00:20:20;14.82;;;9.30;;
12896;SDS011;6516;35.028;32.372;2022-08-21T00:22:49;12.75;;;8.90;;
12896;SDS011;6516;35.028;32.372;2022-08-21T00:25:17;12.73;;;8.60;;
12896;SDS011;6516;35.028;32.372;2022-08-21T00:27:46;12.32;;;8.75;;
12896;SDS011;6516;35.028;32.372;2022-08-21T00:30:15;14.57;;;9.55;;
12896;SDS011;6516;35.028;32.372;2022-08-21T00:32:46;15.52;;;9.98;;
12896;SDS011;6516;35.028;32.372;2022-08-21T00:35:14;14.15;;;10.23;;
12896;SDS011;6516;35.028;32.372;2022-08-21T00:37:45;17.73;;;10.73;;
12896;SDS011;6516;35.028;32.372;2022-08-21T00:40:15;14.60;;;9.90;;
12896;SDS011;6516;35.028;32.372;2022-08-21T00:42:46;15.75;;;10.20;;
12896;SDS011;6516;35.028;32.372;2022-08-21T00:45:15;14.93;;;10.02;;
12896;SDS011;6516;35.028;32.372;2022-08-21T00:47:45;14.98;;;10.32;;
12896;SDS011;6516;35.028;32.372;2022-08-21T00:50:13;15.67;;;9.53;;
12896;SDS011;6516;35.028;32.372;2022-08-21T00:52:41;14.30;;;9.95;;
12896;SDS011;6516;35.028;32.372;2022-08-21T00:55:09;15.95;;;10.27;;
12896;SDS011;6516;35.028;32.372;2022-08-21T00:57:40;13.70;;;10.32;;
12896;SDS011;6516;35.028;32.372;2022-08-21T01:00:22;14.80;;;9.60;;
12896;SDS011;6516;35.028;32.372;2022-08-21T01:02:53;16.30;;;9.70;;
12896;SDS011;6516;35.028;32.372;2022-08-21T01:05:21;13.73;;;9.90;;
12896;SDS011;6516;35.028;32.372;2022-08-21T01:07:49;13.25;;;10.07;;
12896;SDS011;6516;35.028;32.372;2022-08-21T01:10:17;17.08;;;10.90;;
12896;SDS011;6516;35.028;32.372;2022-08-21T01:12:45;16.63;;;10.25;;
12896;SDS011;6516;35.028;32.372;2022-08-21T01:15:13;12.70;;;10.17;;
12896;SDS011;6516;35.028;32.372;2022-08-21T01:17:43;16.98;;;9.82;;
12896;SDS011;6516;35.028;32.372;2022-08-21T01:20:11;15.00;;;10.18;;
12896;SDS011;6516;35.028;32.372;2022-08-21T01:22:41;14.75;;;9.38;;
12896;SDS011;6516;35.028;32.372;2022-08-21T01:25:09;12.55;;;9.32;;
12896;SDS011;6516;35.028;32.372;2022-08-21T01:27:40;14.60;;;9.10;;
12896;SDS011;6516;35.028;32.372;2022-08-21T01:30:09;13.93;;;9.65;;
12896;SDS011;6516;35.028;32.372;2022-08-21T01:32:41;13.48;;;9.27;;
12896;SDS011;6516;35.028;32.372;2022-08-21T01:35:09;13.10;;;8.40;;
12896;SDS011;6516;35.028;32.372;2022-08-21T01:37:38;15.82;;;8.80;;
12896;SDS011;6516;35.028;32.372;2022-08-21T01:40:08;12.90;;;9.00;;
12896;SDS011;6516;35.028;32.372;2022-08-21T01:42:39;12.85;;;8.68;;
12896;SDS011;6516;35.028;32.372;2022-08-21T01:45:07;12.93;;;9.00;;
12896;SDS011;6516;35.028;32.372;2022-08-21T01:47:36;11.70;;;8.50;;
12896;SDS011;6516;35.028;32.372;2022-08-21T01:50:05;13.13;;;8.70;;
12896;SDS011;6516;35.028;32.372;2022-08-21T01:52:37;12.70;;;8.20;;
12896;SDS011;6516;35.028;32.372;2022-08-21T01:55:08;12.43;;;8.30;;
12896;SDS011;6516;35.028;32.372;2022-08-21T01:57:37;10.32;;;7.80;;
12896;SDS011;6516;35.028;32.372;2022-08-21T02:00:06;11.18;;;7.57;;
12896;SDS011;6516;35.028;32.372;2022-08-21T02:02:39;12.20;;;8.13;;
12896;SDS011;6516;35.028;32.372;2022-08-21T02:05:08;10.33;;;7.87;;
12896;SDS011;6516;35.028;32.372;2022-08-21T02:07:37;11.48;;;7.68;;
12896;SDS011;6516;35.028;32.372;2022-08-21T02:10:09;11.50;;;8.40;;
12896;SDS011;6516;35.028;32.372;2022-08-21T02:12:40;13.40;;;8.10;;
12896;SDS011;6516;35.028;32.372;2022-08-21T02:15:08;10.45;;;7.78;;
12896;SDS011;6516;35.028;32.372;2022-08-21T02:17:38;10.47;;;7.87;;
12896;SDS011;6516;35.028;32.372;2022-08-21T02:20:08;10.63;;;8.05;;
12896;SDS011;6516;35.028;32.372;2022-08-21T02:22:38;10.10;;;7.82;;
12896;SDS011;6516;35.028;32.372;2022-08-21T02:25:08;13.05;;;8.07;;
12896;SDS011;6516;35.028;32.372;2022-08-21T02:27:39;11.45;;;7.75;;
12896;SDS011;6516;35.028;32.372;2022-08-21T02:30:09;11.83;;;8.03;;
12896;SDS011;6516;35.028;32.372;2022-08-21T02:32:39;13.40;;;8.70;;
12896;SDS011;6516;35.028;32.372;2022-08-21T02:35:08;13.07;;;7.82;;
12896;SDS011;6516;35.028;32.372;2022-08-21T02:37:42;10.82;;;8.00;;
12896;SDS011;6516;35.028;32.372;2022-08-21T02:40:15;12.38;;;9.10;;
12896;SDS011;6516;35.028;32.372;2022-08-21T02:42:44;11.07;;;8.03;;
12896;SDS011;6516;35.028;32.372;2022-08-21T02:45:13;11.63;;;8.35;;
12896;SDS011;6516;35.028;32.372;2022-08-21T02:47:47;11.05;;;7.85;;
12896;SDS011;6516;35.028;32.372;2022-08-21T02:50:18;11.95;;;7.78;;
12896;SDS011;6516;35.028;32.372;2022-08-21T02:52:49;11.52;;;7.93;;
12896;SDS011;6516;35.028;32.372;2022-08-21T02:55:19;12.57;;;7.50;;
12896;SDS011;6516;35.028;32.372;2022-08-21T02:57:48;11.88;;;8.00;;
12896;SDS011;6516;35.028;32.372;2022-08-21T03:00:16;10.45;;;8.20;;
12896;SDS011;6516;35.028;32.372;2022-08-21T03:02:46;8.85;;;7.47;;
12896;SDS011;6516;35.028;32.372;2022-08-21T03:05:15;10.82;;;8.20;;
12896;SDS011;6516;35.028;32.372;2022-08-21T03:07:44;11.10;;;7.90;;
12896;SDS011;6516;35.028;32.372;2022-08-21T03:10:14;9.55;;;8.02;;
12896;SDS011;6516;35.028;32.372;2022-08-21T03:12:44;13.13;;;8.77;;
12896;SDS011;6516;35.028;32.372;2022-08-21T03:15:13;10.68;;;8.35;;
12896;SDS011;6516;35.028;32.372;2022-08-21T03:17:44;11.73;;;8.85;;
12896;SDS011;6516;35.028;32.372;2022-08-21T03:20:13;15.17;;;8.60;;
12896;SDS011;6516;35.028;32.372;2022-08-21T03:22:44;10.57;;;8.32;;
12896;SDS011;6516;35.028;32.372;2022-08-21T03:25:11;11.20;;;8.77;;
12896;SDS011;6516;35.028;32.372;2022-08-21T03:27:39;12.63;;;8.80;;
12896;SDS011;6516;35.028;32.372;2022-08-21T03:30:10;11.30;;;8.23;;
12896;SDS011;6516;35.028;32.372;2022-08-21T03:32:39;11.10;;;8.17;;
12896;SDS011;6516;35.028;32.372;2022-08-21T03:35:08;14.13;;;9.23;;
12896;SDS011;6516;35.028;32.372;2022-08-21T03:37:36;12.63;;;8.82;;
12896;SDS011;6516;35.028;32.372;2022-08-21T03:40:05;12.65;;;8.15;;
12896;SDS011;6516;35.028;32.372;2022-08-21T03:42:35;13.38;;;8.10;;
12896;SDS011;6516;35.028;32.372;2022-08-21T03:45:03;10.70;;;7.57;;
12896;SDS011;6516;35.028;32.372;2022-08-21T03:47:34;9.60;;;7.40;;
12896;SDS011;6516;35.028;32.372;2022-08-21T03:50:02;10.68;;;7.95;;
12896;SDS011;6516;35.028;32.372;2022-08-21T03:52:33;13.30;;;8.63;;
12896;SDS011;6516;35.028;32.372;2022-08-21T03:55:00;11.80;;;8.27;;
12896;SDS011;6516;35.028;32.372;2022-08-21T03:57:28;12.33;;;8.33;;
12896;SDS011;6516;35.028;32.372;2022-08-21T03:59:56;10.75;;;8.15;;
12896;SDS011;6516;35.028;32.372;2022-08-21T04:02:24;12.63;;;8.70;;
12896;SDS011;6516;35.028;32.372;2022-08-21T04:04:54;12.88;;;8.43;;
12896;SDS011;6516;35.028;32.372;2022-08-21T04:07:22;12.95;;;8.93;;
12896;SDS011;6516;35.028;32.372;2022-08-21T04:09:50;11.40;;;7.67;;
12896;SDS011;6516;35.028;32.372;2022-08-21T04:12:18;10.50;;;7.90;;
12896;SDS011;6516;35.028;32.372;2022-08-21T04:14:46;12.10;;;8.23;;
12896;SDS011;6516;35.028;32.372;2022-08-21T04:17:15;12.10;;;8.13;;
12896;SDS011;6516;35.028;32.372;2022-08-21T04:19:43;11.63;;;8.05;;
12896;SDS011;6516;35.028;32.372;2022-08-21T04:22:13;14.57;;;7.93;;
12896;SDS011;6516;35.028;32.372;2022-08-21T04:24:42;11.98;;;8.18;;
12896;SDS011;6516;35.028;32.372;2022-08-21T04:27:10;12.80;;;8.38;;
12896;SDS011;6516;35.028;32.372;2022-08-21T04:29:38;12.10;;;7.90;;
12896;SDS011;6516;35.028;32.372;2022-08-21T04:32:06;12.88;;;8.63;;
12896;SDS011;6516;35.028;32.372;2022-08-21T04:34:33;10.47;;;8.27;;
12896;SDS011;6516;35.028;32.372;2022-08-21T04:37:01;11.75;;;8.80;;
12896;SDS011;6516;35.028;32.372;2022-08-21T04:39:31;13.57;;;9.13;;
12896;SDS011;6516;35.028;32.372;2022-08-21T04:41:59;10.90;;;8.75;;
12896;SDS011;6516;35.028;32.372;2022-08-21T04:44:26;11.90;;;8.85;;
12896;SDS011;6516;35.028;32.372;2022-08-21T04:46:54;13.50;;;9.17;;
12896;SDS011;6516;35.028;32.372;2022-08-21T04:49:23;13.43;;;9.57;;
12896;SDS011;6516;35.028;32.372;2022-08-21T04:52:00;13.32;;;9.52;;
12896;SDS011;6516;35.028;32.372;2022-08-21T04:54:29;11.52;;;8.77;;
12896;SDS011;6516;35.028;32.372;2022-08-21T04:56:59;11.38;;;9.10;;
12896;SDS011;6516;35.028;32.372;2022-08-21T04:59:33;14.03;;;9.50;;
12896;SDS011;6516;35.028;32.372;2022-08-21T05:02:05;13.95;;;9.35;;
12896;SDS011;6516;35.028;32.372;2022-08-21T05:04:36;12.02;;;8.60;;
12896;SDS011;6516;35.028;32.372;2022-08-21T05:07:12;13.10;;;8.52;;
12896;SDS011;6516;35.028;32.372;2022-08-21T05:09:47;16.45;;;8.75;;
12896;SDS011;6516;35.028;32.372;2022-08-21T05:12:15;12.90;;;8.67;;
12896;SDS011;6516;35.028;32.372;2022-08-21T05:14:44;12.07;;;8.50;;
12896;SDS011;6516;35.028;32.372;2022-08-21T05:17:12;13.05;;;8.88;;
12896;SDS011;6516;35.028;32.372;2022-08-21T05:19:40;13.90;;;8.63;;
12896;SDS011;6516;35.028;32.372;2022-08-21T05:22:08;14.00;;;9.13;;
12896;SDS011;6516;35.028;32.372;2022-08-21T05:24:35;14.40;;;8.50;;
12896;SDS011;6516;35.028;32.372;2022-08-21T05:27:05;11.75;;;8.48;;
12896;SDS011;6516;35.028;32.372;2022-08-21T05:29:33;15.20;;;9.27;;
12896;SDS011;6516;35.028;32.372;2022-08-21T05:32:03;11.75;;;8.80;;
12896;SDS011;6516;35.028;32.372;2022-08-21T05:34:36;12.80;;;8.32;;
12896;SDS011;6516;35.028;32.372;2022-08-21T05:37:05;13.40;;;8.90;;
12896;SDS011;6516;35.028;32.372;2022-08-21T05:39:33;10.90;;;8.23;;
12896;SDS011;6516;35.028;32.372;2022-08-21T05:42:00;11.52;;;8.30;;
12896;SDS011;6516;35.028;32.372;2022-08-21T05:44:30;11.25;;;8.45;;
12896;SDS011;6516;35.028;32.372;2022-08-21T05:47:02;12.48;;;8.50;;
12896;SDS011;6516;35.028;32.372;2022-08-21T05:49:32;11.80;;;8.40;;
12896;SDS011;6516;35.028;32.372;2022-08-21T05:52:00;11.25;;;8.88;;
12896;SDS011;6516;35.028;32.372;2022-08-21T05:54:29;15.32;;;9.88;;
12896;SDS011;6516;35.028;32.372;2022-08-21T05:56:57;11.73;;;8.88;;
12896;SDS011;6516;35.028;32.372;2022-08-21T05:59:25;13.15;;;9.10;;
12896;SDS011;6516;35.028;32.372;2022-08-21T06:01:55;11.60;;;8.67;;
12896;SDS011;6516;35.028;32.372;2022-08-21T06:04:23;14.00;;;9.30;;
12896;SDS011;6516;35.028;32.372;2022-08-21T06:06:51;11.50;;;9.05;;
12896;SDS011;6516;35.028;32.372;2022-08-21T06:09:19;13.65;;;8.85;;
12896;SDS011;6516;35.028;32.372;2022-08-21T06:11:47;13.98;;;9.82;;
12896;SDS011;6516;35.028;32.372;2022-08-21T06:14:14;12.40;;;9.23;;
12896;SDS011;6516;35.028;32.372;2022-08-21T06:16:42;11.57;;;8.65;;
12896;SDS011;6516;35.028;32.372;2022-08-21T06:19:12;10.80;;;8.73;;
12896;SDS011;6516;35.028;32.372;2022-08-21T06:21:40;13.75;;;9.75;;
12896;SDS011;6516;35.028;32.372;2022-08-21T06:24:07;13.23;;;9.07;;
12896;SDS011;6516;35.028;32.372;2022-08-21T06:26:36;12.37;;;9.57;;
12896;SDS011;6516;35.028;32.372;2022-08-21T06:29:04;15.35;;;8.80;;
12896;SDS011;6516;35.028;32.372;2022-08-21T06:31:35;12.93;;;8.82;;
12896;SDS011;6516;35.028;32.372;2022-08-21T06:34:03;12.23;;;8.27;;
12896;SDS011;6516;35.028;32.372;2022-08-21T06:36:32;16.38;;;9.50;;
12896;SDS011;6516;35.028;32.372;2022-08-21T06:39:00;11.83;;;9.10;;
12896;SDS011;6516;35.028;32.372;2022-08-21T06:41:28;14.68;;;9.05;;
12896;SDS011;6516;35.028;32.372;2022-08-21T06:43:57;10.90;;;8.70;;
12896;SDS011;6516;35.028;32.372;2022-08-21T06:46:26;12.13;;;8.85;;
12896;SDS011;6516;35.028;32.372;2022-08-21T06:48:56;13.23;;;9.65;;
12896;SDS011;6516;35.028;32.372;2022-08-21T06:51:25;12.80;;;9.10;;
12896;SDS011;6516;35.028;32.372;2022-08-21T06:53:55;14.43;;;9.23;;
12896;SDS011;6516;35.028;32.372;2022-08-21T06:56:23;14.45;;;9.82;;
12896;SDS011;6516;35.028;32.372;2022-08-21T06:58:50;13.02;;;9.27;;
12896;SDS011;6516;35.028;32.372;2022-08-21T07:01:19;15.00;;;10.05;;
12896;SDS011;6516;35.028;32.372;2022-08-21T07:03:49;15.40;;;9.63;;
12896;SDS011;6516;35.028;32.372;2022-08-21T07:06:17;14.23;;;9.70;;
12896;SDS011;6516;35.028;32.372;2022-08-21T07:08:44;15.13;;;9.45;;
12896;SDS011;6516;35.028;32.372;2022-08-21T07:11:15;13.60;;;8.95;;
12896;SDS011;6516;35.028;32.372;2022-08-21T07:13:46;11.35;;;9.02;;
12896;SDS011;6516;35.028;32.372;2022-08-21T07:16:16;14.10;;;9.57;;
12896;SDS011;6516;35.028;32.372;2022-08-21T07:18:44;12.93;;;9.00;;
12896;SDS011;6516;35.028;32.372;2022-08-21T07:21:11;11.98;;;8.80;;
12896;SDS011;6516;35.028;32.372;2022-08-21T07:23:40;13.95;;;9.48;;
12896;SDS011;6516;35.028;32.372;2022-08-21T07:26:11;13.80;;;9.07;;
12896;SDS011;6516;35.028;32.372;2022-08-21T07:28:41;12.40;;;9.20;;
12896;SDS011;6516;35.028;32.372;2022-08-21T07:31:10;14.35;;;9.07;;
12896;SDS011;6516;35.028;32.372;2022-08-21T07:33:41;14.20;;;9.70;;
12896;SDS011;6516;35.028;32.372;2022-08-21T07:36:10;15.80;;;9.48;;
12896;SDS011;6516;35.028;32.372;2022-08-21T07:38:38;11.45;;;8.85;;
12896;SDS011;6516;35.028;32.372;2022-08-21T07:41:10;12.83;;;8.90;;
12896;SDS011;6516;35.028;32.372;2022-08-21T07:43:43;13.27;;;9.18;;
12896;SDS011;6516;35.028;32.372;2022-08-21T07:46:12;11.95;;;9.00;;
12896;SDS011;6516;35.028;32.372;2022-08-21T07:48:40;12.07;;;9.30;;
12896;SDS011;6516;35.028;32.372;2022-08-21T07:51:10;15.77;;;9.38;;
12896;SDS011;6516;35.028;32.372;2022-08-21T07:53:41;13.27;;;8.80;;
12896;SDS011;6516;35.028;32.372;2022-08-21T07:56:13;12.50;;;9.15;;
12896;SDS011;6516;35.028;32.372;2022-08-21T07:58:41;12.88;;;8.70;;
12896;SDS011;6516;35.028;32.372;2022-08-21T08:01:09;13.18;;;9.40;;
12896;SDS011;6516;35.028;32.372;2022-08-21T08:03:38;14.07;;;8.90;;
12896;SDS011;6516;35.028;32.372;2022-08-21T08:06:06;12.23;;;9.00;;
12896;SDS011;6516;35.028;32.372;2022-08-21T08:08:37;14.27;;;8.93;;
12896;SDS011;6516;35.028;32.372;2022-08-21T08:11:05;12.05;;;8.90;;
12896;SDS011;6516;35.028;32.372;2022-08-21T08:13:39;15.95;;;10.10;;
12896;SDS011;6516;35.028;32.372;2022-08-21T08:16:08;16.75;;;9.25;;
12896;SDS011;6516;35.028;32.372;2022-08-21T08:18:37;12.27;;;8.90;;
12896;SDS011;6516;35.028;32.372;2022-08-21T08:21:05;16.35;;;9.95;;
12896;SDS011;6516;35.028;32.372;2022-08-21T08:23:33;13.98;;;9.60;;
12896;SDS011;6516;35.028;32.372;2022-08-21T08:26:01;14.55;;;9.90;;
12896;SDS011;6516;35.028;32.372;2022-08-21T08:28:30;14.68;;;9.70;;
12896;SDS011;6516;35.028;32.372;2022-08-21T08:31:00;14.57;;;9.30;;
12896;SDS011;6516;35.028;32.372;2022-08-21T08:33:28;13.32;;;9.50;;
12896;SDS011;6516;35.028;32.372;2022-08-21T08:35:57;13.10;;;9.65;;
12896;SDS011;6516;35.028;32.372;2022-08-21T08:38:24;15.98;;;8.95;;
12896;SDS011;6516;35.028;32.372;2022-08-21T08:40:53;13.65;;;9.32;;
12896;SDS011;6516;35.028;32.372;2022-08-21T08:43:28;12.53;;;9.60;;
12896;SDS011;6516;35.028;32.372;2022-08-21T08:46:01;16.40;;;9.52;;
12896;SDS011;6516;35.028;32.372;2022-08-21T08:48:41;12.38;;;9.45;;
12896;SDS011;6516;35.028;32.372;2022-08-21T08:51:18;16.25;;;10.05;;
12896;SDS011;6516;35.028;32.372;2022-08-21T08:53:55;16.35;;;9.77;;
12896;SDS011;6516;35.028;32.372;2022-08-21T08:56:28;11.17;;;9.17;;
12896;SDS011;6516;35.028;32.372;2022-08-21T08:59:00;13.88;;;9.40;;
12896;SDS011;6516;35.028;32.372;2022-08-21T09:01:37;13.18;;;9.88;;
12896;SDS011;6516;35.028;32.372;2022-08-21T09:04:05;13.57;;;9.02;;
12896;SDS011;6516;35.028;32.372;2022-08-21T09:06:37;14.55;;;10.25;;
12896;SDS011;6516;35.028;32.372;2022-08-21T09:09:29;13.60;;;9.50;;
12896;SDS011;6516;35.028;32.372;2022-08-21T09:12:11;12.52;;;9.00;;
12896;SDS011;6516;35.028;32.372;2022-08-21T09:14:47;12.38;;;9.32;;
12896;SDS011;6516;35.028;32.372;2022-08-21T09:17:34;13.93;;;9.02;;
12896;SDS011;6516;35.028;32.372;2022-08-21T09:20:18;14.10;;;9.10;;
12896;SDS011;6516;35.028;32.372;2022-08-21T09:23:02;14.57;;;8.83;;
12896;SDS011;6516;35.028;32.372;2022-08-21T09:25:52;15.75;;;8.70;;
12896;SDS011;6516;35.028;32.372;2022-08-21T09:28:30;15.80;;;8.98;;
12896;SDS011;6516;35.028;32.372;2022-08-21T09:31:00;15.80;;;9.02;;
12896;SDS011;6516;35.028;32.372;2022-08-21T09:33:31;15.60;;;8.90;;
12896;SDS011;6516;35.028;32.372;2022-08-21T09:35:59;17.17;;;8.50;;
12896;SDS011;6516;35.028;32.372;2022-08-21T09:38:28;14.88;;;8.93;;
12896;SDS011;6516;35.028;32.372;2022-08-21T09:41:00;15.60;;;9.30;;
12896;SDS011;6516;35.028;32.372;2022-08-21T09:43:31;16.75;;;9.02;;
12896;SDS011;6516;35.028;32.372;2022-08-21T09:46:10;14.23;;;9.10;;
12896;SDS011;6516;35.028;32.372;2022-08-21T09:48:50;13.73;;;8.90;;
12896;SDS011;6516;35.028;32.372;2022-08-21T09:51:21;14.82;;;9.57;;
12896;SDS011;6516;35.028;32.372;2022-08-21T09:53:52;20.02;;;9.63;;
12896;SDS011;6516;35.028;32.372;2022-08-21T09:56:28;13.60;;;9.07;;
12896;SDS011;6516;35.028;32.372;2022-08-21T09:59:18;17.58;;;9.55;;
12896;SDS011;6516;35.028;32.372;2022-08-21T10:01:56;15.87;;;8.80;;
12896;SDS011;6516;35.028;32.372;2022-08-21T10:04:29;14.68;;;9.00;;
12896;SDS011;6516;35.028;32.372;2022-08-21T10:07:06;15.68;;;8.95;;
12896;SDS011;6516;35.028;32.372;2022-08-21T10:09:35;15.40;;;8.73;;
12896;SDS011;6516;35.028;32.372;2022-08-21T10:12:08;13.32;;;8.85;;
12896;SDS011;6516;35.028;32.372;2022-08-21T10:14:44;18.83;;;9.17;;
12896;SDS011;6516;35.028;32.372;2022-08-21T10:17:24;18.83;;;9.25;;
12896;SDS011;6516;35.028;32.372;2022-08-21T10:20:03;18.35;;;9.52;;
12896;SDS011;6516;35.028;32.372;2022-08-21T10:22:39;15.70;;;8.77;;
12896;SDS011;6516;35.028;32.372;2022-08-21T10:25:16;13.90;;;9.00;;
12896;SDS011;6516;35.028;32.372;2022-08-21T10:27:53;18.67;;;9.47;;
12896;SDS011;6516;35.028;32.372;2022-08-21T10:30:31;14.85;;;9.60;;
12896;SDS011;6516;35.028;32.372;2022-08-21T10:33:12;15.45;;;8.98;;
12896;SDS011;6516;35.028;32.372;2022-08-21T10:35:54;17.08;;;8.98;;
12896;SDS011;6516;35.028;32.372;2022-08-21T10:38:35;15.68;;;9.07;;
12896;SDS011;6516;35.028;32.372;2022-08-21T10:41:22;15.73;;;9.30;;
12896;SDS011;6516;35.028;32.372;2022-08-21T10:44:12;16.70;;;9.10;;
12896;SDS011;6516;35.028;32.372;2022-08-21T10:46:54;16.90;;;9.38;;
12896;SDS011;6516;35.028;32.372;2022-08-21T10:49:32;14.70;;;8.75;;
12896;SDS011;6516;35.028;32.372;2022-08-21T10:52:22;15.98;;;9.77;;
12896;SDS011;6516;35.028;32.372;2022-08-21T10:55:19;15.03;;;9.33;;
12896;SDS011;6516;35.028;32.372;2022-08-21T10:57:51;17.52;;;9.43;;
12896;SDS011;6516;35.028;32.372;2022-08-21T11:00:26;16.65;;;9.35;;
12896;SDS011;6516;35.028;32.372;2022-08-21T11:03:02;16.90;;;9.48;;
12896;SDS011;6516;35.028;32.372;2022-08-21T11:05:38;15.32;;;9.57;;
12896;SDS011;6516;35.028;32.372;2022-08-21T11:08:15;16.40;;;9.63;;
12896;SDS011;6516;35.028;32.372;2022-08-21T11:10:49;16.33;;;9.00;;
12896;SDS011;6516;35.028;32.372;2022-08-21T11:13:27;13.82;;;8.82;;
12896;SDS011;6516;35.028;32.372;2022-08-21T11:16:05;14.50;;;8.55;;
12896;SDS011;6516;35.028;32.372;2022-08-21T11:18:45;13.98;;;7.93;;
12896;SDS011;6516;35.028;32.372;2022-08-21T11:21:27;16.57;;;9.17;;
12896;SDS011;6516;35.028;32.372;2022-08-21T11:24:05;13.27;;;8.88;;
12896;SDS011;6516;35.028;32.372;2022-08-21T11:26:49;15.65;;;9.10;;
12896;SDS011;6516;35.028;32.372;2022-08-21T11:29:37;13.50;;;8.95;;
12896;SDS011;6516;35.028;32.372;2022-08-21T11:32:16;15.50;;;8.70;;
12896;SDS011;6516;35.028;32.372;2022-08-21T11:35:19;13.33;;;8.40;;
12896;SDS011;6516;35.028;32.372;2022-08-21T11:38:05;15.45;;;8.65;;
12896;SDS011;6516;35.028;32.372;2022-08-21T11:40:54;14.05;;;8.90;;
12896;SDS011;6516;35.028;32.372;2022-08-21T11:43:37;16.80;;;8.70;;
12896;SDS011;6516;35.028;32.372;2022-08-21T11:46:12;15.43;;;9.25;;
12896;SDS011;6516;35.028;32.372;2022-08-21T11:48:55;13.10;;;8.37;;
12896;SDS011;6516;35.028;32.372;2022-08-21T11:51:33;13.23;;;8.40;;
12896;SDS011;6516;35.028;32.372;2022-08-21T11:54:08;13.32;;;9.15;;
12896;SDS011;6516;35.028;32.372;2022-08-21T11:56:48;14.95;;;9.43;;
12896;SDS011;6516;35.028;32.372;2022-08-21T11:59:23;15.23;;;9.43;;
12896;SDS011;6516;35.028;32.372;2022-08-21T12:02:03;18.23;;;8.90;;
12896;SDS011;6516;35.028;32.372;2022-08-21T12:04:45;16.13;;;8.18;;
12896;SDS011;6516;35.028;32.372;2022-08-21T12:07:29;13.70;;;8.98;;
12896;SDS011;6516;35.028;32.372;2022-08-21T12:10:02;14.20;;;9.07;;
12896;SDS011;6516;35.028;32.372;2022-08-21T12:12:35;16.63;;;9.73;;
12896;SDS011;6516;35.028;32.372;2022-08-21T12:15:13;12.63;;;8.97;;
12896;SDS011;6516;35.028;32.372;2022-08-21T12:17:55;18.20;;;9.07;;
12896;SDS011;6516;35.028;32.372;2022-08-21T12:20:34;13.77;;;8.88;;
12896;SDS011;6516;35.028;32.372;2022-08-21T12:23:17;15.90;;;8.90;;
12896;SDS011;6516;35.028;32.372;2022-08-21T12:26:09;14.50;;;8.93;;
12896;SDS011;6516;35.028;32.372;2022-08-21T12:28:48;16.93;;;9.30;;
12896;SDS011;6516;35.028;32.372;2022-08-21T12:31:18;15.65;;;8.55;;
12896;SDS011;6516;35.028;32.372;2022-08-21T12:33:54;14.57;;;8.52;;
12896;SDS011;6516;35.028;32.372;2022-08-21T12:36:38;18.02;;;9.35;;
12896;SDS011;6516;35.028;32.372;2022-08-21T12:39:12;13.95;;;8.68;;
12896;SDS011;6516;35.028;32.372;2022-08-21T12:41:46;14.93;;;8.20;;
12896;SDS011;6516;35.028;32.372;2022-08-21T12:44:24;17.20;;;8.68;;
12896;SDS011;6516;35.028;32.372;2022-08-21T12:47:02;14.73;;;8.80;;
12896;SDS011;6516;35.028;32.372;2022-08-21T12:49:34;15.10;;;8.50;;
12896;SDS011;6516;35.028;32.372;2022-08-21T12:52:09;14.00;;;8.50;;
12896;SDS011;6516;35.028;32.372;2022-08-21T12:54:44;15.77;;;9.17;;
12896;SDS011;6516;35.028;32.372;2022-08-21T12:57:17;12.20;;;7.65;;
12896;SDS011;6516;35.028;32.372;2022-08-21T12:59:56;13.10;;;8.65;;
12896;SDS011;6516;35.028;32.372;2022-08-21T13:02:28;13.77;;;8.25;;
12896;SDS011;6516;35.028;32.372;2022-08-21T13:05:02;15.32;;;9.40;;
12896;SDS011;6516;35.028;32.372;2022-08-21T13:07:33;14.10;;;8.97;;
12896;SDS011;6516;35.028;32.372;2022-08-21T13:10:05;15.85;;;8.77;;
12896;SDS011;6516;35.028;32.372;2022-08-21T13:12:43;13.95;;;8.60;;
12896;SDS011;6516;35.028;32.372;2022-08-21T13:15:13;15.68;;;8.75;;
12896;SDS011;6516;35.028;32.372;2022-08-21T13:17:43;15.57;;;8.57;;
12896;SDS011;6516;35.028;32.372;2022-08-21T13:20:18;17.33;;;8.40;;
12896;SDS011;6516;35.028;32.372;2022-08-21T13:22:50;14.50;;;8.65;;
12896;SDS011;6516;35.028;32.372;2022-08-21T13:25:21;16.65;;;9.13;;
12896;SDS011;6516;35.028;32.372;2022-08-21T13:27:58;14.75;;;8.90;;
12896;SDS011;6516;35.028;32.372;2022-08-21T13:30:32;14.07;;;8.18;;
12896;SDS011;6516;35.028;32.372;2022-08-21T13:33:03;16.13;;;8.70;;
12896;SDS011;6516;35.028;32.372;2022-08-21T13:35:35;15.50;;;8.65;;
12896;SDS011;6516;35.028;32.372;2022-08-21T13:38:14;17.98;;;9.15;;
12896;SDS011;6516;35.028;32.372;2022-08-21T13:40:45;12.77;;;8.50;;
12896;SDS011;6516;35.028;32.372;2022-08-21T13:43:18;15.70;;;9.10;;
12896;SDS011;6516;35.028;32.372;2022-08-21T13:45:59;16.27;;;9.00;;
12896;SDS011;6516;35.028;32.372;2022-08-21T13:48:29;11.90;;;8.52;;
12896;SDS011;6516;35.028;32.372;2022-08-21T13:51:01;13.23;;;8.43;;
12896;SDS011;6516;35.028;32.372;2022-08-21T13:53:31;17.42;;;9.38;;
12896;SDS011;6516;35.028;32.372;2022-08-21T13:56:03;12.60;;;8.55;;
12896;SDS011;6516;35.028;32.372;2022-08-21T13:58:32;13.03;;;8.23;;
12896;SDS011;6516;35.028;32.372;2022-08-21T14:01:18;12.02;;;8.48;;
12896;SDS011;6516;35.028;32.372;2022-08-21T14:03:49;14.85;;;8.70;;
12896;SDS011;6516;35.028;32.372;2022-08-21T14:06:24;16.80;;;8.68;;
12896;SDS011;6516;35.028;32.372;2022-08-21T14:08:55;13.88;;;8.88;;
12896;SDS011;6516;35.028;32.372;2022-08-21T14:11:27;14.83;;;8.47;;
12896;SDS011;6516;35.028;32.372;2022-08-21T14:14:00;14.50;;;8.60;;
12896;SDS011;6516;35.028;32.372;2022-08-21T14:16:42;19.25;;;9.10;;
12896;SDS011;6516;35.028;32.372;2022-08-21T14:19:18;16.08;;;9.07;;
12896;SDS011;6516;35.028;32.372;2022-08-21T14:21:48;18.38;;;8.88;;
12896;SDS011;6516;35.028;32.372;2022-08-21T14:24:24;15.23;;;9.00;;
12896;SDS011;6516;35.028;32.372;2022-08-21T14:26:55;16.67;;;9.55;;
12896;SDS011;6516;35.028;32.372;2022-08-21T14:29:33;17.25;;;9.48;;
12896;SDS011;6516;35.028;32.372;2022-08-21T14:32:09;17.95;;;9.00;;
12896;SDS011;6516;35.028;32.372;2022-08-21T14:34:41;21.08;;;9.27;;
12896;SDS011;6516;35.028;32.372;2022-08-21T14:37:09;15.57;;;8.97;;
12896;SDS011;6516;35.028;32.372;2022-08-21T14:39:37;13.43;;;8.73;;
12896;SDS011;6516;35.028;32.372;2022-08-21T14:42:05;14.60;;;8.80;;
12896;SDS011;6516;35.028;32.372;2022-08-21T14:44:33;15.25;;;8.90;;
12896;SDS011;6516;35.028;32.372;2022-08-21T14:47:01;16.33;;;8.75;;
12896;SDS011;6516;35.028;32.372;2022-08-21T14:49:31;18.93;;;9.17;;
12896;SDS011;6516;35.028;32.372;2022-08-21T14:51:58;16.60;;;9.63;;
12896;SDS011;6516;35.028;32.372;2022-08-21T14:54:26;15.32;;;10.10;;
12896;SDS011;6516;35.028;32.372;2022-08-21T14:56:56;16.35;;;9.45;;
12896;SDS011;6516;35.028;32.372;2022-08-21T14:59:27;17.08;;;10.05;;
12896;SDS011;6516;35.028;32.372;2022-08-21T15:01:55;17.33;;;9.77;;